Friend, Oregon
Current Conditions -  °F | °C
As of 12:15 PM on Friday 21 Nov 2014 (Local Time) from KDLS Reporting Station
Haze Haze  
Wind Chill: 34°   Ceiling: 900
Heat Index: 34°   Visibility: 4mi
Dew Point: 30°   Wind: 0mph
Humidity: 85%   Direction: NA
Pressure: 29.84"   Gusts: NA
Location:  45.3856°N, 121.15°W
Report Text: KDLS 212015Z AUTO 00000KT 4SM BR OVC009 01/M01 A2984 RMK AO2 T00111011
Loading
Personal Weather Stations






























Interactive Weather Map New forecast layout! Learn more

10-Day Weather Forecast

Advertisements
Track Severe Weather on mobile